createdAt,value
2018-08-06T00:01:44.723Z,8.50
2018-08-06T00:04:13.255Z,10.03
2018-08-06T00:06:43.716Z,8.60
2018-08-06T00:09:12.219Z,9.10
2018-08-06T00:11:40.476Z,9.23
2018-08-06T00:14:08.653Z,9.23
2018-08-06T00:16:37.174Z,9.47
2018-08-06T00:19:05.347Z,8.57
2018-08-06T00:21:36.184Z,10.57
2018-08-06T00:24:05.925Z,8.33
2018-08-06T00:26:34.447Z,10.00
2018-08-06T00:29:02.917Z,10.13
2018-08-06T00:31:32.421Z,8.93
2018-08-06T00:34:00.547Z,8.83
2018-08-06T00:36:28.734Z,11.33
2018-08-06T00:38:59.622Z,9.37
2018-08-06T00:41:28.409Z,9.63
2018-08-06T00:43:56.976Z,10.27
2018-08-06T00:46:25.459Z,9.90
2018-08-06T00:48:54.352Z,10.20
2018-08-06T00:51:22.826Z,10.57
2018-08-06T00:53:53.477Z,9.77
2018-08-06T00:56:22.042Z,10.53
2018-08-06T00:58:50.540Z,10.43
2018-08-06T01:01:20.951Z,10.53
2018-08-06T01:03:49.813Z,10.10
2018-08-06T01:06:18.318Z,9.87
2018-08-06T01:08:46.866Z,10.13
2018-08-06T01:11:15.009Z,10.43
2018-08-06T01:13:43.808Z,11.20
2018-08-06T01:16:12.270Z,10.90
2018-08-06T01:18:40.880Z,10.93
2018-08-06T01:21:09.407Z,12.40
2018-08-06T01:23:37.889Z,12.10
2018-08-06T01:26:10.033Z,11.43
2018-08-06T01:28:38.629Z,11.37
2018-08-06T01:31:07.133Z,12.17
2018-08-06T01:33:35.703Z,11.90
2018-08-06T01:36:04.190Z,12.70
2018-08-06T01:38:32.388Z,13.73
2018-08-06T01:41:01.978Z,12.93
2018-08-06T01:43:30.546Z,11.67
2018-08-06T01:45:58.688Z,13.57
2018-08-06T01:48:28.391Z,14.60
2018-08-06T01:50:56.508Z,13.07
2018-08-06T01:53:26.793Z,15.13
2018-08-06T01:55:55.255Z,13.90
2018-08-06T01:58:23.769Z,14.57
2018-08-06T02:00:56.075Z,15.40
2018-08-06T02:03:24.553Z,14.87
2018-08-06T02:05:53.725Z,15.20
2018-08-06T02:08:24.285Z,17.60
2018-08-06T02:10:52.809Z,15.90
2018-08-06T02:13:20.989Z,15.20
2018-08-06T02:15:49.459Z,17.57
2018-08-06T02:18:17.954Z,17.33
2018-08-06T02:20:47.778Z,17.70
2018-08-06T02:23:15.949Z,18.60
2018-08-06T02:25:44.430Z,18.20
2018-08-06T02:28:13.794Z,18.40
2018-08-06T02:30:42.287Z,19.90
2018-08-06T02:33:10.779Z,17.47
2018-08-06T02:35:38.922Z,19.97
2018-08-06T02:38:07.426Z,18.63
2018-08-06T02:40:35.598Z,18.43
2018-08-06T02:43:07.251Z,17.53
2018-08-06T02:45:35.482Z,17.67
2018-08-06T02:48:04.044Z,16.37
2018-08-06T02:50:35.729Z,15.30
2018-08-06T02:53:05.444Z,16.10
2018-08-06T02:55:33.937Z,16.50
2018-08-06T02:58:02.408Z,16.53
2018-08-06T03:00:33.181Z,17.47
2018-08-06T03:03:01.394Z,14.70
2018-08-06T03:05:29.936Z,14.80
2018-08-06T03:08:00.680Z,14.77
2018-08-06T03:10:29.185Z,16.03
2018-08-06T03:12:57.339Z,16.80
2018-08-06T03:15:29.767Z,15.60
2018-08-06T03:17:58.182Z,15.40
2018-08-06T03:20:26.641Z,15.20
2018-08-06T03:22:55.134Z,14.83
2018-08-06T03:25:24.226Z,17.10
2018-08-06T03:27:52.400Z,16.67
2018-08-06T03:30:23.239Z,15.30
2018-08-06T03:32:51.418Z,16.50
2018-08-06T03:35:19.979Z,16.97
2018-08-06T03:37:49.554Z,15.60
2018-08-06T03:40:18.123Z,15.60
2018-08-06T03:42:46.602Z,15.30
2018-08-06T03:45:15.668Z,16.37
2018-08-06T03:47:46.346Z,13.90
2018-08-06T03:50:16.407Z,14.10
2018-08-06T03:52:45.331Z,13.93
2018-08-06T03:55:14.017Z,13.73
2018-08-06T03:57:42.736Z,12.87
2018-08-06T04:00:11.997Z,14.77
2018-08-06T04:02:43.454Z,11.93
2018-08-06T04:05:12.998Z,12.47
2018-08-06T04:07:41.168Z,11.33
2018-08-06T04:10:11.398Z,11.00
2018-08-06T04:12:40.533Z,10.47
2018-08-06T04:15:09.769Z,11.43
2018-08-06T04:17:38.752Z,11.93
2018-08-06T04:20:10.840Z,10.90
2018-08-06T04:22:44.383Z,10.67
2018-08-06T04:25:12.930Z,10.57
2018-08-06T04:27:41.875Z,10.23
2018-08-06T04:30:13.774Z,9.80
2018-08-06T04:32:42.725Z,10.00
2018-08-06T04:35:11.201Z,10.13
2018-08-06T04:37:41.539Z,9.47
2018-08-06T04:40:10.878Z,10.30
2018-08-06T04:42:39.976Z,9.73
2018-08-06T04:45:09.974Z,9.30
2018-08-06T04:47:39.091Z,9.90
2018-08-06T04:50:09.066Z,9.40
2018-08-06T04:52:39.631Z,8.90
2018-08-06T04:55:08.795Z,9.20
2018-08-06T04:57:37.409Z,9.37
2018-08-06T05:00:10.076Z,10.37
2018-08-06T05:02:38.621Z,9.70
2018-08-06T05:05:08.336Z,10.13
2018-08-06T05:07:42.607Z,9.73
2018-08-06T05:10:11.127Z,8.83
2018-08-06T05:12:39.647Z,8.97
2018-08-06T05:15:11.445Z,9.30
2018-08-06T05:17:39.963Z,9.10
2018-08-06T05:20:08.496Z,9.73
2018-08-06T05:22:39.338Z,7.97
2018-08-06T05:25:11.057Z,7.70
2018-08-06T05:27:40.433Z,8.17
2018-08-06T05:30:10.551Z,8.33
2018-08-06T05:32:40.560Z,8.10
2018-08-06T05:35:09.633Z,7.80
2018-08-06T05:37:38.677Z,8.37
2018-08-06T05:40:08.415Z,7.77
2018-08-06T05:42:44.268Z,7.60
2018-08-06T05:45:13.307Z,7.00
2018-08-06T05:47:45.070Z,7.40
2018-08-06T05:50:40.729Z,7.70
2018-08-06T05:53:23.819Z,6.27
2018-08-06T05:58:51.223Z,6.70
2018-08-06T06:01:21.419Z,6.40
2018-08-06T06:03:50.262Z,6.20
2018-08-06T06:06:18.903Z,7.60
2018-08-06T06:09:00.699Z,7.07
2018-08-06T06:11:35.282Z,6.30
2018-08-06T06:14:04.265Z,6.23
2018-08-06T06:16:47.879Z,8.07
2018-08-06T06:19:23.655Z,7.00
2018-08-06T06:21:57.706Z,7.20
2018-08-06T06:24:26.240Z,7.97
2018-08-06T06:26:54.789Z,7.37
2018-08-06T06:29:23.338Z,8.00
2018-08-06T06:32:01.103Z,7.20
2018-08-06T06:34:29.942Z,7.50
2018-08-06T06:36:59.431Z,6.90
2018-08-06T06:39:27.942Z,7.43
2018-08-06T06:41:56.570Z,7.23
2018-08-06T06:44:25.129Z,7.30
2018-08-06T06:46:53.344Z,8.33
2018-08-06T06:49:21.868Z,7.97
2018-08-06T06:51:55.414Z,8.00
2018-08-06T06:54:24.327Z,7.43
2018-08-06T06:56:52.928Z,8.43
2018-08-06T06:59:21.872Z,8.47
2018-08-06T07:01:50.927Z,8.43
2018-08-06T07:04:24.890Z,8.60
2018-08-06T07:06:55.676Z,9.30
2018-08-06T07:09:38.378Z,8.80
2018-08-06T07:12:09.577Z,9.00
2018-08-06T07:14:38.149Z,8.63
2018-08-06T07:17:06.875Z,7.10
2018-08-06T07:19:36.714Z,8.53
2018-08-06T07:22:06.579Z,8.17
2018-08-06T07:24:35.406Z,8.57
2018-08-06T07:27:04.924Z,8.90
2018-08-06T07:29:33.685Z,8.00
2018-08-06T07:32:01.847Z,8.30
2018-08-06T07:34:30.689Z,7.30
2018-08-06T07:37:01.632Z,7.97
2018-08-06T07:39:31.139Z,8.23
2018-08-06T07:42:01.007Z,8.87
2018-08-06T07:44:30.462Z,8.90
2018-08-06T07:46:59.005Z,7.97
2018-08-06T07:49:27.488Z,8.13
2018-08-06T07:51:59.182Z,8.40
2018-08-06T07:54:27.672Z,8.70
2018-08-06T07:56:58.676Z,8.30
2018-08-06T07:59:33.091Z,9.33
2018-08-06T08:02:04.800Z,7.30
2018-08-06T08:04:33.130Z,8.10
2018-08-06T08:07:03.818Z,8.93
2018-08-06T08:09:36.980Z,8.80
2018-08-06T08:12:05.541Z,8.53
2018-08-06T08:14:34.198Z,7.73
2018-08-06T08:17:02.817Z,8.33
2018-08-06T08:19:31.368Z,6.90
2018-08-06T08:22:01.592Z,7.00
2018-08-06T08:24:32.664Z,8.13
2018-08-06T08:27:06.797Z,7.80
2018-08-06T08:29:35.464Z,7.30
2018-08-06T08:32:04.686Z,11.27
2018-08-06T08:34:35.757Z,8.17
2018-08-06T08:37:03.882Z,8.67
2018-08-06T08:39:32.456Z,8.33
2018-08-06T08:42:02.491Z,8.67
2018-08-06T08:44:31.565Z,8.50
2018-08-06T08:47:00.324Z,8.27
2018-08-06T08:49:29.393Z,8.37
2018-08-06T08:51:57.978Z,7.43
2018-08-06T08:54:26.496Z,8.20
2018-08-06T08:56:58.323Z,8.50
2018-08-06T08:59:27.289Z,7.90
2018-08-06T09:01:55.785Z,7.70
2018-08-06T09:04:27.422Z,8.17
2018-08-06T09:06:59.053Z,7.90
2018-08-06T09:09:27.405Z,8.07
2018-08-06T09:11:57.805Z,8.40
2018-08-06T09:14:27.491Z,8.20
2018-08-06T09:16:57.451Z,8.70
2018-08-06T09:19:28.545Z,8.10
2018-08-06T09:21:57.525Z,8.10
2018-08-06T09:24:25.987Z,8.67
2018-08-06T09:26:54.939Z,7.63
2018-08-06T09:29:23.552Z,7.90
2018-08-06T09:31:52.037Z,8.10
2018-08-06T09:34:23.157Z,8.67
2018-08-06T09:36:51.665Z,7.47
2018-08-06T09:39:20.179Z,7.70
2018-08-06T09:41:51.371Z,7.57
2018-08-06T09:44:19.812Z,7.57
2018-08-06T09:46:47.967Z,8.50
2018-08-06T09:49:17.334Z,7.80
2018-08-06T09:51:45.757Z,8.00
2018-08-06T09:54:21.525Z,8.40
2018-08-06T09:56:55.075Z,8.83
2018-08-06T09:59:24.060Z,9.07
2018-08-06T10:01:57.177Z,8.33
2018-08-06T10:04:28.851Z,9.43
2018-08-06T10:07:02.775Z,9.20
2018-08-06T10:09:42.106Z,8.53
2018-08-06T10:12:11.347Z,7.53
2018-08-06T10:14:39.802Z,7.83
2018-08-06T10:17:08.289Z,8.30
2018-08-06T10:19:38.847Z,7.70
2018-08-06T10:22:07.040Z,8.00
2018-08-06T10:24:36.489Z,7.67
2018-08-06T10:27:05.185Z,6.63
2018-08-06T10:29:33.658Z,7.83
2018-08-06T10:32:04.895Z,7.13
2018-08-06T10:34:41.072Z,7.10
2018-08-06T10:37:09.530Z,7.97
2018-08-06T10:40:01.200Z,7.60
2018-08-06T10:42:33.624Z,7.63
2018-08-06T10:45:02.160Z,6.90
2018-08-06T10:47:30.704Z,8.30
2018-08-06T10:50:02.100Z,7.00
2018-08-06T10:52:31.608Z,6.63
2018-08-06T10:55:00.039Z,7.43
2018-08-06T10:57:28.863Z,6.93
2018-08-06T10:59:58.267Z,6.50
2018-08-06T11:02:26.763Z,6.50
2018-08-06T11:04:55.657Z,5.27
2018-08-06T11:07:24.257Z,5.20
2018-08-06T11:09:52.771Z,5.43
2018-08-06T11:12:20.941Z,5.00
2018-08-06T11:14:50.456Z,4.80
2018-08-06T11:17:18.969Z,5.50
2018-08-06T11:19:47.739Z,5.70
2018-08-06T11:22:17.775Z,6.03
2018-08-06T11:24:46.227Z,6.20
2018-08-06T11:27:24.121Z,5.70
2018-08-06T11:29:52.250Z,4.83
2018-08-06T11:32:25.794Z,6.03
2018-08-06T11:34:54.256Z,4.23
2018-08-06T11:37:22.730Z,4.10
2018-08-06T11:39:51.504Z,5.20
2018-08-06T11:42:20.788Z,4.67
2018-08-06T11:44:49.324Z,5.60
2018-08-06T11:47:17.782Z,5.30
2018-08-06T11:49:46.422Z,5.43
2018-08-06T11:52:15.211Z,5.00
2018-08-06T11:54:43.678Z,6.27
2018-08-06T11:57:13.758Z,4.90
2018-08-06T11:59:42.335Z,5.77
2018-08-06T12:02:13.345Z,5.00
2018-08-06T12:04:43.701Z,5.00
2018-08-06T12:07:12.152Z,5.13
2018-08-06T12:09:40.288Z,4.70
2018-08-06T12:12:09.665Z,5.27
2018-08-06T12:14:38.627Z,4.87
2018-08-06T12:17:07.066Z,5.50
2018-08-06T12:19:35.298Z,5.70
2018-08-06T12:22:03.809Z,4.00
2018-08-06T12:24:32.365Z,4.93
2018-08-06T12:27:01.751Z,4.90
2018-08-06T12:29:30.193Z,5.37
2018-08-06T12:31:58.915Z,5.37
2018-08-06T12:34:28.864Z,5.20
2018-08-06T12:37:07.284Z,5.60
2018-08-06T12:39:46.434Z,5.57
2018-08-06T12:42:22.087Z,4.87
2018-08-06T12:44:52.371Z,4.70
2018-08-06T12:47:21.030Z,4.40
2018-08-06T12:49:53.243Z,4.83
2018-08-06T12:52:21.781Z,5.30
2018-08-06T12:54:50.267Z,5.73
2018-08-06T12:57:20.625Z,5.07
2018-08-06T12:59:49.140Z,5.57
2018-08-06T13:02:17.616Z,4.90
2018-08-06T13:04:46.071Z,5.27
2018-08-06T13:07:17.514Z,5.23
2018-08-06T13:09:45.968Z,5.20
2018-08-06T13:12:14.488Z,5.17
2018-08-06T13:14:45.079Z,5.67
2018-08-06T13:17:13.539Z,5.60
2018-08-06T13:19:42.032Z,5.27
2018-08-06T13:22:10.637Z,5.60
2018-08-06T13:24:39.039Z,4.90
2018-08-06T13:27:07.268Z,5.60
2018-08-06T13:29:35.772Z,4.80
2018-08-06T13:32:05.890Z,5.17
2018-08-06T13:34:34.315Z,5.20
2018-08-06T13:37:02.939Z,5.40
2018-08-06T13:39:50.429Z,5.70
2018-08-06T13:42:20.279Z,5.03
2018-08-06T13:44:48.772Z,5.90
2018-08-06T13:47:17.395Z,5.80
2018-08-06T13:49:45.863Z,5.43
2018-08-06T13:52:14.453Z,5.47
2018-08-06T13:54:42.950Z,5.43
2018-08-06T13:57:11.512Z,5.50
2018-08-06T13:59:44.417Z,5.30
2018-08-06T14:02:23.737Z,5.40
2018-08-06T14:04:52.295Z,5.73
2018-08-06T14:10:09.232Z,5.40
2018-08-06T14:12:49.873Z,5.37
2018-08-06T14:15:37.315Z,5.50
2018-08-06T14:18:13.878Z,5.87
2018-08-06T14:20:53.260Z,5.60
2018-08-06T14:23:25.984Z,5.10
2018-08-06T14:26:02.273Z,5.13
2018-08-06T14:28:39.149Z,5.30
2018-08-06T14:31:11.716Z,5.37
2018-08-06T14:33:42.024Z,5.80
2018-08-06T14:36:17.264Z,5.60
2018-08-06T14:38:52.489Z,5.20
2018-08-06T14:44:55.116Z,5.70
2018-08-06T14:47:30.001Z,5.10
2018-08-06T14:50:03.650Z,5.30
2018-08-06T14:52:41.030Z,5.10
2018-08-06T14:55:11.194Z,5.23
2018-08-06T14:58:02.410Z,5.43
2018-08-06T15:01:04.994Z,5.13
2018-08-06T15:03:38.917Z,5.33
2018-08-06T15:06:13.894Z,5.57
2018-08-06T15:08:59.245Z,5.67
2018-08-06T15:11:57.071Z,5.43
2018-08-06T15:14:30.471Z,5.70
2018-08-06T15:17:01.459Z,5.57
2018-08-06T15:19:32.673Z,5.20
2018-08-06T15:26:12.980Z,5.30
2018-08-06T15:28:47.245Z,5.13
2018-08-06T15:31:18.233Z,4.30
2018-08-06T15:33:54.461Z,4.93
2018-08-06T15:36:26.658Z,5.70
2018-08-06T15:38:58.903Z,4.30
2018-08-06T15:41:32.191Z,4.70
2018-08-06T15:44:08.017Z,4.60
2018-08-06T15:46:39.280Z,4.60
2018-08-06T15:49:13.857Z,4.40
2018-08-06T15:51:44.016Z,4.53
2018-08-06T15:54:16.377Z,4.77
2018-08-06T15:56:51.112Z,4.60
2018-08-06T15:59:23.784Z,4.60
2018-08-06T16:01:56.690Z,4.87
2018-08-06T16:04:32.298Z,4.80
2018-08-06T16:07:05.569Z,4.30
2018-08-06T16:09:37.386Z,5.30
2018-08-06T16:16:38.965Z,4.70
2018-08-06T16:19:07.760Z,3.77
2018-08-06T16:24:52.540Z,4.43
2018-08-06T16:27:21.683Z,4.73
2018-08-06T16:29:51.173Z,15.30
2018-08-06T16:32:19.389Z,6.60
2018-08-06T16:34:47.710Z,16.03
2018-08-06T16:37:20.707Z,5.70
2018-08-06T16:39:49.249Z,4.77
2018-08-06T16:42:17.909Z,5.80
2018-08-06T16:44:49.125Z,4.97
2018-08-06T16:47:17.611Z,4.60
2018-08-06T16:49:46.383Z,5.60
2018-08-06T16:52:17.302Z,4.77
2018-08-06T16:54:51.548Z,3.77
2018-08-06T16:57:25.167Z,4.80
2018-08-06T16:59:56.693Z,4.77
2018-08-06T17:02:25.275Z,5.27
2018-08-06T17:05:04.058Z,4.10
2018-08-06T17:07:42.038Z,4.57
2018-08-06T17:10:29.043Z,4.43
2018-08-06T17:12:57.674Z,4.70
2018-08-06T17:15:26.277Z,5.50
2018-08-06T17:17:55.415Z,4.90
2018-08-06T17:20:24.282Z,5.03
2018-08-06T17:22:53.260Z,5.50
2018-08-06T17:25:21.849Z,6.50
2018-08-06T17:27:50.324Z,4.70
2018-08-06T17:30:18.812Z,5.00
2018-08-06T17:32:47.571Z,5.30
2018-08-06T17:35:16.594Z,5.50
2018-08-06T17:37:45.153Z,4.90
2018-08-06T17:40:16.788Z,5.10
2018-08-06T17:42:45.320Z,4.53
2018-08-06T17:45:16.122Z,5.70
2018-08-06T17:47:44.632Z,4.77
2018-08-06T17:50:15.158Z,6.10
2018-08-06T17:52:44.505Z,4.97
2018-08-06T17:55:13.040Z,4.80
2018-08-06T17:57:43.755Z,4.63
2018-08-06T18:00:13.177Z,4.27
2018-08-06T18:02:41.411Z,4.13
2018-08-06T18:05:12.132Z,5.40
2018-08-06T18:07:41.126Z,4.97
2018-08-06T18:10:10.199Z,4.67
2018-08-06T18:12:38.441Z,5.97
2018-08-06T18:15:06.733Z,5.27
2018-08-06T18:17:35.771Z,6.70
2018-08-06T18:20:04.731Z,5.60
2018-08-06T18:22:36.656Z,5.37
2018-08-06T18:25:10.980Z,4.43
2018-08-06T18:27:49.095Z,5.43
2018-08-06T18:30:27.534Z,4.60
2018-08-06T18:32:55.951Z,4.53
2018-08-06T18:35:24.241Z,5.47
2018-08-06T18:37:52.418Z,5.10
2018-08-06T18:40:21.899Z,4.90
2018-08-06T18:42:50.204Z,4.23
2018-08-06T18:45:23.198Z,4.63
2018-08-06T18:48:00.728Z,4.70
2018-08-06T18:50:29.353Z,4.57
2018-08-06T18:52:57.615Z,4.93
2018-08-06T18:55:26.198Z,5.60
2018-08-06T18:57:54.744Z,4.33
2018-08-06T19:00:24.238Z,4.70
2018-08-06T19:02:53.129Z,4.93
2018-08-06T19:05:21.762Z,4.73
2018-08-06T19:07:50.247Z,4.93
2018-08-06T19:10:18.851Z,5.10
2018-08-06T19:12:52.338Z,4.67
2018-08-06T19:15:20.903Z,5.20
2018-08-06T19:17:54.740Z,5.13
2018-08-06T19:20:23.426Z,4.97
2018-08-06T19:22:51.952Z,4.67
2018-08-06T19:25:25.069Z,4.77
2018-08-06T19:27:53.749Z,5.00
2018-08-06T19:30:26.271Z,5.33
2018-08-06T19:32:55.191Z,4.23
2018-08-06T19:35:24.272Z,4.80
2018-08-06T19:37:52.764Z,5.43
2018-08-06T19:40:21.275Z,5.03
2018-08-06T19:42:55.209Z,6.20
2018-08-06T19:45:25.355Z,5.60
2018-08-06T19:47:53.824Z,5.70
2018-08-06T19:50:27.604Z,5.20
2018-08-06T19:52:56.110Z,4.93
2018-08-06T19:55:29.601Z,4.70
2018-08-06T19:57:58.277Z,5.97
2018-08-06T20:00:26.932Z,5.40
2018-08-06T20:02:55.888Z,4.90
2018-08-06T20:05:25.233Z,5.20
2018-08-06T20:07:53.956Z,5.20
2018-08-06T20:10:22.634Z,5.30
2018-08-06T20:12:51.296Z,5.57
2018-08-06T20:15:20.293Z,7.67
2018-08-06T20:17:49.970Z,5.83
2018-08-06T20:20:18.596Z,7.20
2018-08-06T20:22:48.566Z,6.97
2018-08-06T20:25:18.376Z,5.90
2018-08-06T20:27:47.862Z,6.40
2018-08-06T20:30:17.003Z,6.87
2018-08-06T20:32:45.463Z,7.17
2018-08-06T20:35:15.713Z,7.17
2018-08-06T20:37:44.153Z,6.43
2018-08-06T20:40:12.787Z,6.43
2018-08-06T20:42:43.211Z,7.07
2018-08-06T20:45:13.038Z,6.73
2018-08-06T20:47:42.084Z,6.60
2018-08-06T20:50:14.830Z,5.80
2018-08-06T20:52:45.006Z,5.50
2018-08-06T20:55:13.810Z,7.10
2018-08-06T20:57:42.531Z,6.43
2018-08-06T21:00:17.983Z,5.70
2018-08-06T21:02:47.481Z,7.00
2018-08-06T21:05:16.268Z,6.00
2018-08-06T21:07:44.852Z,6.63
2018-08-06T21:10:14.284Z,6.60
2018-08-06T21:12:42.678Z,5.83
2018-08-06T21:15:12.340Z,5.23
2018-08-06T21:17:40.973Z,6.17
2018-08-06T21:20:13.070Z,5.80
2018-08-06T21:22:42.749Z,6.57
2018-08-06T21:25:11.594Z,5.80
2018-08-06T21:27:40.817Z,4.67
2018-08-06T21:30:12.031Z,5.67
2018-08-06T21:32:43.990Z,5.23
2018-08-06T21:35:12.147Z,5.30
2018-08-06T21:37:40.268Z,5.60
2018-08-06T21:40:08.877Z,5.20
2018-08-06T21:42:37.057Z,5.47
2018-08-06T21:45:05.420Z,5.30
2018-08-06T21:47:33.832Z,6.60
2018-08-06T21:50:02.003Z,6.50
2018-08-06T21:52:30.452Z,7.50
2018-08-06T21:54:58.986Z,6.70
2018-08-06T21:57:27.172Z,6.83
2018-08-06T21:59:55.324Z,5.70
2018-08-06T22:02:23.873Z,5.43
2018-08-06T22:04:52.061Z,5.67
2018-08-06T22:07:20.536Z,6.00
2018-08-06T22:09:49.066Z,5.40
2018-08-06T22:12:17.257Z,5.40
2018-08-06T22:14:45.748Z,5.30
2018-08-06T22:17:13.948Z,5.03
2018-08-06T22:19:42.111Z,6.23
2018-08-06T22:22:10.817Z,5.23
2018-08-06T22:24:39.379Z,5.00
2018-08-06T22:27:07.545Z,5.30
2018-08-06T22:29:35.996Z,5.47
2018-08-06T22:32:04.612Z,6.30
2018-08-06T22:34:32.807Z,4.70
2018-08-06T22:37:01.291Z,5.67
2018-08-06T22:39:29.809Z,5.10
2018-08-06T22:41:58.275Z,4.40
2018-08-06T22:44:26.680Z,4.80
2018-08-06T22:46:55.152Z,6.03
2018-08-06T22:49:23.338Z,5.10
2018-08-06T22:51:51.502Z,4.73
2018-08-06T22:54:19.620Z,4.50
2018-08-06T22:56:48.143Z,5.43
2018-08-06T22:59:16.587Z,5.73
2018-08-06T23:01:45.081Z,5.10
2018-08-06T23:04:13.571Z,5.13
2018-08-06T23:06:42.158Z,5.10
2018-08-06T23:09:11.954Z,5.30
2018-08-06T23:11:41.150Z,5.47
2018-08-06T23:14:09.562Z,4.03
2018-08-06T23:16:38.109Z,5.57
2018-08-06T23:19:06.245Z,4.63
2018-08-06T23:21:34.525Z,5.63
2018-08-06T23:24:03.177Z,7.13
2018-08-06T23:26:31.697Z,6.10
2018-08-06T23:29:00.014Z,5.20
2018-08-06T23:31:28.193Z,5.40
2018-08-06T23:33:56.589Z,5.03
2018-08-06T23:36:25.257Z,5.47
2018-08-06T23:38:53.845Z,5.63
2018-08-06T23:41:21.992Z,4.87
2018-08-06T23:43:50.617Z,5.07
2018-08-06T23:46:19.071Z,5.10
2018-08-06T23:48:47.877Z,5.23
2018-08-06T23:51:16.375Z,4.97
2018-08-06T23:53:44.912Z,5.37
2018-08-06T23:56:13.445Z,5.33
2018-08-06T23:58:41.954Z,5.67
